Wahiawā, HI

11:08 AM HST on March 30, 2015 (GMT -1000)
RAWS | | Change Station
CLOSE
Current Station
Personal Weather Station
Location: Wahiawa, HI
Elevation: 1250 ft
Nearby Weather Stations

Elev 1250 ft 21.50 °N, 157.99 °W | Updated 8 days ago

Partly Cloudy
Partly Cloudy
76 °F
Feels Like 76 °F
N
15
Wind Variable Wind from East
Gusts 19 mph

Today
High -- | Low -- °F
--% Chance of Precip.
Yesterday
High -- | Low -- °F
Precip. -- in
6:26 AM 6:46 PM
Waxing Gibbous, 82% visible
Pressure 30.13 in
Visibility 10.0 miles
Clouds Few 2300 ft
Dew Point 63 °F
Humidity 66%
Rainfall in
Snow Depth Not available.
UV 9 out of 12
Pollen Not available.
Air Quality Not available.
Flu Activity Not available.
METAR PHHI 302058Z AUTO 08009KT 10SM FEW023 23/18 A3015 RMK AO2 DZB29E40 SLP202 P0000 60000 T02320181 50003 $

More Conditions Fewer Conditions

Pressure 30.13 in
Visibility 10.0 miles
Clouds Few 2300 ft
Dew Point 63 °F
Humidity 66%
Rainfall in
Snow Depth Not available.
UV 9 out of 12
Pollen Not available.
Air Quality Not available.
Flu Activity Not available.
METAR PHHI 302058Z AUTO 08009KT 10SM FEW023 23/18 A3015 RMK AO2 DZB29E40 SLP202 P0000 60000 T02320181 50003 $

More Conditions Fewer Conditions

10-Day Weather Forecast

Almanac

Astronomy

Mar. 30, 2015 Rise Set
Actual Time
Civil Twilight
Nautical Twilight
Astronomical Twilight
Moon
Length of Visible Light
Length of Day
Tomorrow will be .
, % of the Moon is Illuminated

Today's Extremes

State Highs State Lows

Community

WunderPhotos

Upload Photos

1,809,587 photos uploaded!

WunderBlogs® & News

Nearby

Air Quality

  Air Quality AQ Index Pollutant
Not available.

Snow Depth

Station Depth Elevation

Earthquake Activity

City Distance Mag. Time & Date
Minimum magnitude displayed is 2.5.

Coastal Water Temperatures

Place Temperature

Stations

Nearby Weather Stations

Station Location Temp. Windchill Dew Point Humidity Wind Precip. Elev Updated Type